createdAt,value
2023-02-02T04:59:49.920Z,100061.16
2023-02-02T05:02:52.403Z,100065.47
2023-02-02T05:06:04.869Z,100065.34
2023-02-02T05:09:07.241Z,100055.69
2023-02-02T05:12:09.355Z,100057.41
2023-02-02T05:15:11.847Z,100071.91
2023-02-02T05:18:14.146Z,100067.59
2023-02-02T05:21:16.546Z,100083.06
2023-02-02T05:24:18.670Z,100090.66
2023-02-02T05:27:21.400Z,100101.94
2023-02-02T05:30:23.473Z,100107.41
2023-02-02T05:33:25.983Z,100122.19
2023-02-02T05:36:28.235Z,100132.34
2023-02-02T05:39:30.629Z,100137.47
2023-02-02T05:42:32.732Z,100143.53
2023-02-02T05:45:35.237Z,100134.03
2023-02-02T05:48:37.426Z,100141.59
2023-02-02T05:51:46.938Z,100155.66
2023-02-02T05:54:49.099Z,100160.69
2023-02-02T05:57:51.503Z,100160.69
2023-02-02T06:00:56.500Z,100181.66
2023-02-02T06:03:59.208Z,100180.50
2023-02-02T06:07:01.352Z,100167.69
2023-02-02T06:10:04.361Z,100176.34
2023-02-02T06:13:06.551Z,100166.41
2023-02-02T06:16:09.395Z,100159.22
2023-02-02T06:19:11.618Z,100157.72
2023-02-02T06:22:14.234Z,100151.84
2023-02-02T06:25:16.396Z,100139.66
2023-02-02T06:28:19.263Z,100141.13
2023-02-02T06:31:21.989Z,100133.88
2023-02-02T06:34:24.648Z,100149.53
2023-02-02T06:37:28.945Z,100137.06
2023-02-02T06:40:32.843Z,100138.78
2023-02-02T06:43:35.020Z,100137.59
2023-02-02T06:46:37.519Z,100140.81
2023-02-02T06:49:39.643Z,100143.38
2023-02-02T06:52:49.576Z,100140.81
2023-02-02T06:55:57.394Z,100134.03
2023-02-02T06:59:00.175Z,100141.53
2023-02-02T07:02:02.475Z,100144.28
2023-02-02T07:05:05.664Z,100156.72
2023-02-02T07:08:07.791Z,100145.00
2023-02-02T07:11:15.185Z,100165.69
2023-02-02T07:14:18.564Z,100163.81
2023-02-02T07:17:20.974Z,100168.97
2023-02-02T07:20:23.103Z,100176.88
2023-02-02T07:23:26.470Z,100170.44
2023-02-02T07:26:29.131Z,100180.94
2023-02-02T07:29:31.582Z,100187.13
2023-02-02T07:32:33.772Z,100200.22
2023-02-02T07:35:36.183Z,100216.22
2023-02-02T07:38:38.352Z,100232.56
2023-02-02T07:41:40.863Z,100236.66
2023-02-02T07:44:48.440Z,100233.37
2023-02-02T07:47:59.443Z,100249.75
2023-02-02T07:51:06.590Z,100254.25
2023-02-02T07:54:09.471Z,100251.34
2023-02-02T07:57:13.187Z,100249.44
2023-02-02T08:00:15.953Z,100240.03
2023-02-02T08:03:18.641Z,100242.41
2023-02-02T08:06:24.019Z,100240.31
2023-02-02T08:09:26.802Z,100235.28
2023-02-02T08:12:29.094Z,100238.38
2023-02-02T08:15:31.518Z,100238.44
2023-02-02T08:18:34.928Z,100231.22
2023-02-02T08:21:37.640Z,100231.06
2023-02-02T08:24:40.597Z,100242.91
2023-02-02T08:27:43.858Z,100231.59
2023-02-02T08:30:46.851Z,100236.66
2023-02-02T08:33:50.126Z,100235.50
2023-02-02T08:36:52.258Z,100236.28
2023-02-02T08:39:54.830Z,100223.44
2023-02-02T08:42:57.035Z,100218.56
2023-02-02T08:46:05.039Z,100213.06
2023-02-02T08:49:10.854Z,100202.78
2023-02-02T08:52:13.207Z,100219.00
2023-02-02T08:55:15.859Z,100223.94
2023-02-02T08:58:18.210Z,100205.91
2023-02-02T09:01:25.492Z,100226.50
2023-02-02T09:04:27.935Z,100229.12
2023-02-02T09:07:31.598Z,100259.38
2023-02-02T09:10:38.156Z,100241.06
2023-02-02T09:13:41.579Z,100228.75
2023-02-02T09:16:44.089Z,100240.59
2023-02-02T09:19:46.322Z,100238.62
2023-02-02T09:22:48.860Z,100241.69
2023-02-02T09:25:51.056Z,100236.56
2023-02-02T09:28:58.725Z,100248.81
2023-02-02T09:32:00.833Z,100234.81
2023-02-02T09:35:03.382Z,100236.78
2023-02-02T09:38:05.615Z,100240.00
2023-02-02T09:41:34.769Z,100235.59
2023-02-02T09:44:45.358Z,100246.75
2023-02-02T09:48:12.642Z,100237.34
2023-02-02T09:51:21.223Z,100241.75
2023-02-02T09:54:42.770Z,100246.22
2023-02-02T09:57:50.862Z,100260.31
2023-02-02T10:01:10.965Z,100243.19
2023-02-02T10:04:29.604Z,100236.75
2023-02-02T10:07:34.630Z,100249.19
2023-02-02T10:10:46.308Z,100245.19
2023-02-02T10:13:54.629Z,100261.75
2023-02-02T10:17:05.348Z,100275.88
2023-02-02T10:20:23.386Z,100266.12
2023-02-02T10:23:35.574Z,100254.63
2023-02-02T10:26:46.129Z,100242.75
2023-02-02T10:29:57.911Z,100245.41
2023-02-02T10:33:12.636Z,100262.38
2023-02-02T10:36:32.369Z,100237.25
2023-02-02T10:40:01.263Z,100219.94
2023-02-02T10:43:34.710Z,100234.97
2023-02-02T10:46:42.880Z,100217.47
2023-02-02T10:49:45.721Z,100215.06
2023-02-02T10:52:59.755Z,100225.56
2023-02-02T10:56:11.881Z,100217.16
2023-02-02T10:59:31.402Z,100223.59
2023-02-02T11:02:34.010Z,100216.72
2023-02-02T11:05:54.916Z,100230.34
2023-02-02T11:09:00.417Z,100249.50
2023-02-02T11:12:28.591Z,100249.12
2023-02-02T11:15:31.748Z,100239.69
2023-02-02T11:18:33.929Z,100253.00
2023-02-02T11:21:38.541Z,100231.75
2023-02-02T11:24:46.350Z,100262.97
2023-02-02T11:27:48.990Z,100251.47
2023-02-02T11:30:55.198Z,100251.81
2023-02-02T11:34:28.042Z,100251.13
2023-02-02T11:37:32.805Z,100245.94
2023-02-02T11:40:56.196Z,100259.69
2023-02-02T11:43:58.578Z,100256.25
2023-02-02T11:47:03.328Z,100264.16
2023-02-02T11:50:06.362Z,100282.25
2023-02-02T11:53:40.588Z,100283.19
2023-02-02T11:56:49.839Z,100277.94
2023-02-02T12:00:26.928Z,100294.84
2023-02-02T12:03:38.505Z,100285.88
2023-02-02T12:06:40.929Z,100296.34
2023-02-02T12:09:43.490Z,100288.88
2023-02-02T12:12:45.611Z,100273.22
2023-02-02T12:16:08.970Z,100276.75
2023-02-02T12:19:11.196Z,100272.50
2023-02-02T12:22:27.215Z,100284.53
2023-02-02T12:25:48.637Z,100278.41
2023-02-02T12:28:50.974Z,100267.84
2023-02-02T12:32:26.088Z,100280.25
2023-02-02T12:36:02.595Z,100269.84
2023-02-02T12:39:32.483Z,100267.03
2023-02-02T12:42:41.291Z,100273.47
2023-02-02T12:46:21.469Z,100272.72
2023-02-02T12:49:39.068Z,100277.06
2023-02-02T12:53:07.055Z,100266.03
2023-02-02T12:56:35.510Z,100274.37
2023-02-02T12:59:59.195Z,100277.00
2023-02-02T13:03:14.506Z,100270.97
2023-02-02T13:06:50.531Z,100270.97
2023-02-02T13:10:28.097Z,100287.31
2023-02-02T13:13:36.767Z,100277.53
2023-02-02T13:16:44.131Z,100285.09
2023-02-02T13:19:53.410Z,100295.03
2023-02-02T13:23:08.987Z,100299.56
2023-02-02T13:26:34.885Z,100292.56
2023-02-02T13:29:48.830Z,100282.28
2023-02-02T13:32:53.511Z,100283.44
2023-02-02T13:36:02.048Z,100293.34
2023-02-02T13:39:15.945Z,100308.94
2023-02-02T13:42:31.909Z,100295.66
2023-02-02T13:45:52.393Z,100299.81
2023-02-02T13:49:18.709Z,100302.38
2023-02-02T13:52:29.884Z,100301.94
2023-02-02T13:56:06.737Z,100303.59
2023-02-02T13:59:28.879Z,100309.31
2023-02-02T14:02:43.858Z,100299.16
2023-02-02T14:06:03.465Z,100298.63
2023-02-02T14:09:06.339Z,100288.84
2023-02-02T14:12:11.476Z,100310.28
2023-02-02T14:15:13.911Z,100303.72
2023-02-02T14:18:48.177Z,100312.44
2023-02-02T14:22:08.796Z,100317.56
2023-02-02T14:25:29.351Z,100304.00
2023-02-02T14:28:46.659Z,100311.28
2023-02-02T14:31:55.240Z,100302.50
2023-02-02T14:35:20.316Z,100316.78
2023-02-02T14:38:39.481Z,100313.31
2023-02-02T14:42:22.105Z,100318.41
2023-02-02T14:45:41.307Z,100312.28
2023-02-02T14:48:54.027Z,100334.88
2023-02-02T14:52:01.991Z,100323.41
2023-02-02T14:55:04.396Z,100323.62
2023-02-02T14:58:09.824Z,100331.00
2023-02-02T15:01:33.473Z,100333.50
2023-02-02T15:04:36.095Z,100338.00
2023-02-02T15:07:52.209Z,100346.03
2023-02-02T15:11:23.841Z,100343.28
2023-02-02T15:14:36.155Z,100343.34
2023-02-02T15:17:41.670Z,100336.88
2023-02-02T15:20:48.797Z,100360.13
2023-02-02T15:23:51.454Z,100352.81
2023-02-02T15:26:55.658Z,100345.69
2023-02-02T15:30:04.251Z,100360.72
2023-02-02T15:33:18.058Z,100349.56
2023-02-02T15:36:25.234Z,100363.28
2023-02-02T15:39:28.027Z,100369.37
2023-02-02T15:42:54.220Z,100380.13
2023-02-02T15:46:04.156Z,100377.53
2023-02-02T15:49:33.384Z,100379.84
2023-02-02T15:52:50.014Z,100368.75
2023-02-02T15:55:53.551Z,100388.38
2023-02-02T15:58:59.344Z,100391.72
2023-02-02T16:02:20.918Z,100396.03
2023-02-02T16:05:56.428Z,100403.72
2023-02-02T16:08:58.871Z,100407.59
2023-02-02T16:12:02.931Z,100408.50
2023-02-02T16:15:19.014Z,100421.34
2023-02-02T16:18:21.368Z,100412.53
2023-02-02T16:21:26.376Z,100418.19
2023-02-02T16:24:36.259Z,100417.28
2023-02-02T16:27:43.841Z,100436.59
